sensor_id;sensor_type;location;lat;lon;timestamp;pressure;altitude;pressure_sealevel;temperature;humidity
61906;BME280;47863;55.766;37.672;2023-01-28T00:02:21;100559.00;;;-0.37;83.01
61906;BME280;47863;55.766;37.672;2023-01-28T00:04:47;100561.25;;;-0.30;83.20
61906;BME280;47863;55.766;37.672;2023-01-28T00:07:13;100590.25;;;-0.12;82.79
61906;BME280;47863;55.766;37.672;2023-01-28T00:09:38;100552.72;;;-0.35;82.70
61906;BME280;47863;55.766;37.672;2023-01-28T00:12:04;100594.75;;;-0.14;82.72
61906;BME280;47863;55.766;37.672;2023-01-28T00:14:30;100586.00;;;-0.15;82.99
61906;BME280;47863;55.766;37.672;2023-01-28T00:16:56;100596.47;;;-0.13;82.76
61906;BME280;47863;55.766;37.672;2023-01-28T00:19:21;100575.69;;;-0.19;82.99
61906;BME280;47863;55.766;37.672;2023-01-28T00:21:48;100570.50;;;-0.21;82.57
61906;BME280;47863;55.766;37.672;2023-01-28T00:24:13;100586.78;;;-0.13;82.52
61906;BME280;47863;55.766;37.672;2023-01-28T00:26:40;100593.97;;;-0.16;82.45
61906;BME280;47863;55.766;37.672;2023-01-28T00:29:06;100587.00;;;-0.17;82.81
61906;BME280;47863;55.766;37.672;2023-01-28T00:31:31;100558.84;;;-0.34;82.42
61906;BME280;47863;55.766;37.672;2023-01-28T00:33:59;100601.09;;;-0.18;82.84
61906;BME280;47863;55.766;37.672;2023-01-28T00:36:25;100590.50;;;-0.17;82.97
61906;BME280;47863;55.766;37.672;2023-01-28T00:38:53;100597.44;;;-0.16;82.88
61906;BME280;47863;55.766;37.672;2023-01-28T00:41:21;100596.75;;;-0.19;82.63
61906;BME280;47863;55.766;37.672;2023-01-28T00:43:48;100602.03;;;-0.19;82.63
61906;BME280;47863;55.766;37.672;2023-01-28T00:46:14;100602.22;;;-0.24;82.45
61906;BME280;47863;55.766;37.672;2023-01-28T00:48:41;100606.94;;;-0.31;82.80
61906;BME280;47863;55.766;37.672;2023-01-28T00:51:08;100600.09;;;-0.35;82.49
61906;BME280;47863;55.766;37.672;2023-01-28T00:53:35;100605.50;;;-0.38;82.91
61906;BME280;47863;55.766;37.672;2023-01-28T00:56:07;100604.72;;;-0.40;82.52
61906;BME280;47863;55.766;37.672;2023-01-28T00:58:33;100603.03;;;-0.41;82.81
61906;BME280;47863;55.766;37.672;2023-01-28T01:01:07;100604.53;;;-0.35;82.85
61906;BME280;47863;55.766;37.672;2023-01-28T01:03:33;100603.53;;;-0.33;82.88
61906;BME280;47863;55.766;37.672;2023-01-28T01:05:59;100599.94;;;-0.32;82.53
61906;BME280;47863;55.766;37.672;2023-01-28T01:08:24;100598.31;;;-0.34;82.50
61906;BME280;47863;55.766;37.672;2023-01-28T01:11:02;100603.59;;;-0.34;82.72
61906;BME280;47863;55.766;37.672;2023-01-28T01:13:29;100602.81;;;-0.36;82.53
61906;BME280;47863;55.766;37.672;2023-01-28T01:16:10;100601.97;;;-0.37;82.70
61906;BME280;47863;55.766;37.672;2023-01-28T01:18:37;100603.66;;;-0.36;82.70
61906;BME280;47863;55.766;37.672;2023-01-28T01:21:11;100606.28;;;-0.36;82.72
61906;BME280;47863;55.766;37.672;2023-01-28T01:23:38;100620.38;;;-0.37;82.39
61906;BME280;47863;55.766;37.672;2023-01-28T01:26:04;100610.00;;;-0.40;82.81
61906;BME280;47863;55.766;37.672;2023-01-28T01:28:30;100609.22;;;-0.42;82.69
61906;BME280;47863;55.766;37.672;2023-01-28T01:31:00;100610.16;;;-0.43;82.68
61906;BME280;47863;55.766;37.672;2023-01-28T01:33:27;100595.78;;;-0.55;82.55
61906;BME280;47863;55.766;37.672;2023-01-28T01:35:54;100611.13;;;-0.46;82.70
61906;BME280;47863;55.766;37.672;2023-01-28T01:38:20;100615.59;;;-0.48;82.78
61906;BME280;47863;55.766;37.672;2023-01-28T01:40:46;100580.53;;;-0.67;82.45
61906;BME280;47863;55.766;37.672;2023-01-28T01:43:19;100606.06;;;-0.50;82.38
61906;BME280;47863;55.766;37.672;2023-01-28T01:45:49;100610.56;;;-0.52;82.51
61906;BME280;47863;55.766;37.672;2023-01-28T01:48:30;100589.84;;;-0.60;82.76
61906;BME280;47863;55.766;37.672;2023-01-28T01:53:34;100601.38;;;-0.63;82.80
61906;BME280;47863;55.766;37.672;2023-01-28T01:56:03;100598.88;;;-0.66;82.72
61906;BME280;47863;55.766;37.672;2023-01-28T01:58:34;100597.19;;;-0.67;82.44
61906;BME280;47863;55.766;37.672;2023-01-28T02:01:02;100563.97;;;-0.88;82.76
61906;BME280;47863;55.766;37.672;2023-01-28T02:03:35;100571.63;;;-0.84;82.71
61906;BME280;47863;55.766;37.672;2023-01-28T02:06:03;100602.50;;;-0.68;82.61
61906;BME280;47863;55.766;37.672;2023-01-28T02:08:29;100606.00;;;-0.68;82.75
61906;BME280;47863;55.766;37.672;2023-01-28T02:11:01;100584.00;;;-0.86;82.48
61906;BME280;47863;55.766;37.672;2023-01-28T02:13:33;100610.47;;;-0.70;82.79
61906;BME280;47863;55.766;37.672;2023-01-28T02:16:00;100611.47;;;-0.72;82.70
61906;BME280;47863;55.766;37.672;2023-01-28T02:18:27;100581.59;;;-0.90;82.70
61906;BME280;47863;55.766;37.672;2023-01-28T02:26:49;100615.09;;;-0.75;82.49
61906;BME280;47863;55.766;37.672;2023-01-28T02:29:30;100611.75;;;-0.78;82.43
61906;BME280;47863;55.766;37.672;2023-01-28T02:34:49;100614.56;;;-0.83;82.54
61906;BME280;47863;55.766;37.672;2023-01-28T02:37:19;100619.03;;;-0.85;82.75
61906;BME280;47863;55.766;37.672;2023-01-28T02:39:53;100614.56;;;-0.83;82.43
61906;BME280;47863;55.766;37.672;2023-01-28T02:42:26;100626.66;;;-0.79;82.58
61906;BME280;47863;55.766;37.672;2023-01-28T02:44:53;100590.66;;;-0.97;82.37
61906;BME280;47863;55.766;37.672;2023-01-28T02:47:18;100617.78;;;-0.76;82.58
61906;BME280;47863;55.766;37.672;2023-01-28T02:50:11;100623.13;;;-0.78;82.71
61906;BME280;47863;55.766;37.672;2023-01-28T03:05:15;100635.81;;;-0.88;82.46
61906;BME280;47863;55.766;37.672;2023-01-28T03:07:37;100609.47;;;-1.07;82.76
61906;BME280;47863;55.766;37.672;2023-01-28T03:10:07;100619.59;;;-0.97;82.33
61906;BME280;47863;55.766;37.672;2023-01-28T03:12:36;100642.72;;;-0.85;82.67
61906;BME280;47863;55.766;37.672;2023-01-28T03:15:30;100640.81;;;-0.82;82.45
61906;BME280;47863;55.766;37.672;2023-01-28T03:18:24;100631.28;;;-0.84;82.60
61906;BME280;47863;55.766;37.672;2023-01-28T03:21:21;100634.03;;;-0.87;82.34
61906;BME280;47863;55.766;37.672;2023-01-28T03:25:04;100641.66;;;-0.81;82.50
61906;BME280;47863;55.766;37.672;2023-01-28T03:27:49;100651.53;;;-0.86;82.61
61906;BME280;47863;55.766;37.672;2023-01-28T03:30:48;100635.25;;;-0.94;82.28
61906;BME280;47863;55.766;37.672;2023-01-28T03:33:35;100630.50;;;-1.07;82.43
61906;BME280;47863;55.766;37.672;2023-01-28T03:36:19;100622.50;;;-1.24;82.41
61906;BME280;47863;55.766;37.672;2023-01-28T03:39:04;100628.09;;;-1.32;82.59
61906;BME280;47863;55.766;37.672;2023-01-28T03:41:30;100651.47;;;-1.26;82.52
61906;BME280;47863;55.766;37.672;2023-01-28T03:43:55;100618.41;;;-1.52;82.64
61906;BME280;47863;55.766;37.672;2023-01-28T03:46:21;100646.81;;;-1.40;82.77
61906;BME280;47863;55.766;37.672;2023-01-28T03:48:47;100636.81;;;-1.52;82.89
61906;BME280;47863;55.766;37.672;2023-01-28T03:51:13;100654.00;;;-1.45;82.81
61906;BME280;47863;55.766;37.672;2023-01-28T03:53:38;100631.91;;;-1.61;82.72
61906;BME280;47863;55.766;37.672;2023-01-28T03:56:05;100641.28;;;-1.54;82.64
61906;BME280;47863;55.766;37.672;2023-01-28T03:58:30;100650.66;;;-1.48;82.79
61906;BME280;47863;55.766;37.672;2023-01-28T04:01:16;100652.56;;;-1.52;82.48
61906;BME280;47863;55.766;37.672;2023-01-28T04:03:41;100640.59;;;-1.59;82.29
61906;BME280;47863;55.766;37.672;2023-01-28T04:06:08;100639.81;;;-1.61;82.70
61906;BME280;47863;55.766;37.672;2023-01-28T04:08:34;100651.78;;;-1.54;82.65
61906;BME280;47863;55.766;37.672;2023-01-28T04:10:59;100610.69;;;-1.77;82.45
61906;BME280;47863;55.766;37.672;2023-01-28T04:13:43;100657.81;;;-1.52;82.26
61906;BME280;47863;55.766;37.672;2023-01-28T04:16:10;100642.22;;;-1.56;82.37
61906;BME280;47863;55.766;37.672;2023-01-28T04:18:35;100631.19;;;-1.65;82.39
61906;BME280;47863;55.766;37.672;2023-01-28T04:21:01;100639.84;;;-1.63;82.37
61906;BME280;47863;55.766;37.672;2023-01-28T04:23:26;100651.78;;;-1.54;82.39
61906;BME280;47863;55.766;37.672;2023-01-28T04:25:54;100636.50;;;-1.66;82.44
61906;BME280;47863;55.766;37.672;2023-01-28T04:28:20;100653.53;;;-1.54;82.44
61906;BME280;47863;55.766;37.672;2023-01-28T04:30:45;100644.22;;;-1.62;82.36
61906;BME280;47863;55.766;37.672;2023-01-28T04:33:12;100628.88;;;-1.72;82.19
61906;BME280;47863;55.766;37.672;2023-01-28T04:35:38;100650.00;;;-1.53;82.24
61906;BME280;47863;55.766;37.672;2023-01-28T04:38:03;100633.75;;;-1.63;82.24
61906;BME280;47863;55.766;37.672;2023-01-28T04:40:29;100653.41;;;-1.51;82.37
61906;BME280;47863;55.766;37.672;2023-01-28T04:42:55;100652.47;;;-1.50;82.28
61906;BME280;47863;55.766;37.672;2023-01-28T04:45:21;100609.56;;;-1.71;82.02
61906;BME280;47863;55.766;37.672;2023-01-28T04:47:47;100649.81;;;-1.49;82.13
61906;BME280;47863;55.766;37.672;2023-01-28T04:50:13;100663.78;;;-1.48;82.17
61906;BME280;47863;55.766;37.672;2023-01-28T04:52:39;100657.81;;;-1.52;82.00
61906;BME280;47863;55.766;37.672;2023-01-28T04:55:05;100606.72;;;-1.87;82.17
61906;BME280;47863;55.766;37.672;2023-01-28T04:57:30;100643.66;;;-1.70;82.00
61906;BME280;47863;55.766;37.672;2023-01-28T04:59:56;100642.69;;;-1.67;82.25
61906;BME280;47863;55.766;37.672;2023-01-28T05:02:21;100664.28;;;-1.61;82.24
61906;BME280;47863;55.766;37.672;2023-01-28T05:04:47;100660.75;;;-1.60;82.32
61906;BME280;47863;55.766;37.672;2023-01-28T05:07:12;100670.34;;;-1.58;82.36
61906;BME280;47863;55.766;37.672;2023-01-28T05:09:38;100665.75;;;-1.53;82.29
61906;BME280;47863;55.766;37.672;2023-01-28T05:12:04;100667.47;;;-1.52;81.96
61906;BME280;47863;55.766;37.672;2023-01-28T05:14:29;100672.66;;;-1.51;82.09
61906;BME280;47863;55.766;37.672;2023-01-28T05:16:55;100665.13;;;-1.60;81.86
61906;BME280;47863;55.766;37.672;2023-01-28T05:19:20;100680.47;;;-1.49;82.27
61906;BME280;47863;55.766;37.672;2023-01-28T05:21:46;100646.03;;;-1.64;81.93
61906;BME280;47863;55.766;37.672;2023-01-28T05:24:11;100684.09;;;-1.52;82.03
61906;BME280;47863;55.766;37.672;2023-01-28T05:26:37;100684.94;;;-1.51;82.00
61906;BME280;47863;55.766;37.672;2023-01-28T05:29:03;100644.53;;;-1.69;82.27
61906;BME280;47863;55.766;37.672;2023-01-28T05:31:28;100685.78;;;-1.51;81.92
61906;BME280;47863;55.766;37.672;2023-01-28T05:33:54;100684.00;;;-1.50;81.90
61906;BME280;47863;55.766;37.672;2023-01-28T05:36:19;100633.31;;;-1.74;81.83
61906;BME280;47863;55.766;37.672;2023-01-28T05:38:45;100663.44;;;-1.61;81.72
61906;BME280;47863;55.766;37.672;2023-01-28T05:41:11;100680.44;;;-1.48;81.87
61906;BME280;47863;55.766;37.672;2023-01-28T05:43:36;100634.91;;;-1.70;82.09
61906;BME280;47863;55.766;37.672;2023-01-28T05:46:02;100625.50;;;-1.76;81.83
61906;BME280;47863;55.766;37.672;2023-01-28T05:48:27;100660.09;;;-1.65;81.94
61906;BME280;47863;55.766;37.672;2023-01-28T05:50:53;100686.72;;;-1.52;81.77
61906;BME280;47863;55.766;37.672;2023-01-28T05:53:19;100694.72;;;-1.55;81.95
61906;BME280;47863;55.766;37.672;2023-01-28T05:55:51;100688.69;;;-1.57;81.94
61906;BME280;47863;55.766;37.672;2023-01-28T05:58:19;100686.03;;;-1.57;81.90
61906;BME280;47863;55.766;37.672;2023-01-28T06:00:45;100679.00;;;-1.56;82.11
61906;BME280;47863;55.766;37.672;2023-01-28T06:03:11;100688.69;;;-1.57;82.06
61906;BME280;47863;55.766;37.672;2023-01-28T06:05:36;100700.09;;;-1.58;81.97
61906;BME280;47863;55.766;37.672;2023-01-28T06:08:02;100666.72;;;-1.78;81.83
61906;BME280;47863;55.766;37.672;2023-01-28T06:10:28;100693.38;;;-1.65;82.04
61906;BME280;47863;55.766;37.672;2023-01-28T06:12:54;100698.69;;;-1.67;81.87
61906;BME280;47863;55.766;37.672;2023-01-28T06:15:20;100703.91;;;-1.65;81.79
61906;BME280;47863;55.766;37.672;2023-01-28T06:17:46;100702.97;;;-1.64;81.55
61906;BME280;47863;55.766;37.672;2023-01-28T06:20:11;100697.91;;;-1.69;81.64
61906;BME280;47863;55.766;37.672;2023-01-28T06:22:37;100699.72;;;-1.71;81.80
61906;BME280;47863;55.766;37.672;2023-01-28T06:25:02;100687.63;;;-1.75;81.91
61906;BME280;47863;55.766;37.672;2023-01-28T06:27:29;100704.75;;;-1.65;81.84
61906;BME280;47863;55.766;37.672;2023-01-28T06:29:54;100706.31;;;-1.61;81.80
61906;BME280;47863;55.766;37.672;2023-01-28T06:32:20;100665.22;;;-1.84;81.69
61906;BME280;47863;55.766;37.672;2023-01-28T06:34:46;100666.13;;;-1.85;81.72
61906;BME280;47863;55.766;37.672;2023-01-28T06:37:12;100711.53;;;-1.59;81.77
61906;BME280;47863;55.766;37.672;2023-01-28T06:39:38;100677.19;;;-1.76;81.58
61906;BME280;47863;55.766;37.672;2023-01-28T06:42:04;100676.28;;;-1.75;81.47
61906;BME280;47863;55.766;37.672;2023-01-28T06:44:29;100698.50;;;-1.62;81.38
61906;BME280;47863;55.766;37.672;2023-01-28T06:46:55;100702.16;;;-1.66;81.34
61906;BME280;47863;55.766;37.672;2023-01-28T06:49:20;100675.59;;;-1.81;81.35
61906;BME280;47863;55.766;37.672;2023-01-28T06:51:46;100691.13;;;-1.74;81.37
61906;BME280;47863;55.766;37.672;2023-01-28T06:54:12;100674.44;;;-1.95;81.08
61906;BME280;47863;55.766;37.672;2023-01-28T06:56:37;100719.66;;;-1.65;81.40
61906;BME280;47863;55.766;37.672;2023-01-28T06:59:03;100692.41;;;-1.85;81.54
61906;BME280;47863;55.766;37.672;2023-01-28T07:01:29;100719.75;;;-1.68;81.41
61906;BME280;47863;55.766;37.672;2023-01-28T07:03:54;100723.44;;;-1.72;81.53
61906;BME280;47863;55.766;37.672;2023-01-28T07:06:20;100715.69;;;-1.75;81.48
61906;BME280;47863;55.766;37.672;2023-01-28T07:08:46;100712.63;;;-1.87;81.25
61906;BME280;47863;55.766;37.672;2023-01-28T07:11:12;100708.94;;;-1.83;81.20
61906;BME280;47863;55.766;37.672;2023-01-28T07:13:37;100732.47;;;-1.80;81.26
61906;BME280;47863;55.766;37.672;2023-01-28T07:16:03;100724.81;;;-1.86;81.42
61906;BME280;47863;55.766;37.672;2023-01-28T07:18:29;100712.09;;;-1.96;81.08
61906;BME280;47863;55.766;37.672;2023-01-28T07:20:55;100735.22;;;-1.83;81.36
61906;BME280;47863;55.766;37.672;2023-01-28T07:23:21;100654.50;;;-2.23;81.53
61906;BME280;47863;55.766;37.672;2023-01-28T07:25:47;100711.22;;;-1.95;81.35
61906;BME280;47863;55.766;37.672;2023-01-28T07:28:12;100727.28;;;-1.81;81.73
61906;BME280;47863;55.766;37.672;2023-01-28T07:30:38;100735.97;;;-1.79;81.21
61906;BME280;47863;55.766;37.672;2023-01-28T07:33:04;100687.78;;;-2.02;81.32
61906;BME280;47863;55.766;37.672;2023-01-28T07:35:30;100729.72;;;-1.76;81.10
61906;BME280;47863;55.766;37.672;2023-01-28T07:37:58;100732.25;;;-1.73;81.29
61906;BME280;47863;55.766;37.672;2023-01-28T07:40:25;100731.16;;;-1.68;81.29
61906;BME280;47863;55.766;37.672;2023-01-28T07:42:51;100725.66;;;-1.62;81.20
61906;BME280;47863;55.766;37.672;2023-01-28T07:45:18;100691.00;;;-1.71;81.36
61906;BME280;47863;55.766;37.672;2023-01-28T07:47:44;100716.44;;;-1.50;81.09
61906;BME280;47863;55.766;37.672;2023-01-28T07:50:10;100721.22;;;-1.39;80.96
61906;BME280;47863;55.766;37.672;2023-01-28T07:52:36;100717.63;;;-1.36;80.95
61906;BME280;47863;55.766;37.672;2023-01-28T07:55:10;100683.22;;;-1.52;80.73
61906;BME280;47863;55.766;37.672;2023-01-28T07:57:56;100721.59;;;-1.26;80.69
61906;BME280;47863;55.766;37.672;2023-01-28T08:00:23;100716.16;;;-1.22;80.89
61906;BME280;47863;55.766;37.672;2023-01-28T08:02:49;100669.78;;;-1.45;80.71
61906;BME280;47863;55.766;37.672;2023-01-28T08:05:20;100716.47;;;-1.09;80.71
61906;BME280;47863;55.766;37.672;2023-01-28T08:07:46;100687.28;;;-1.23;80.76
61906;BME280;47863;55.766;37.672;2023-01-28T08:10:13;100699.91;;;-1.11;80.15
61906;BME280;47863;55.766;37.672;2023-01-28T08:12:39;100709.25;;;-1.04;80.52
61906;BME280;47863;55.766;37.672;2023-01-28T08:15:05;100723.88;;;-0.96;80.36
61906;BME280;47863;55.766;37.672;2023-01-28T08:17:31;100687.69;;;-1.12;80.73
61906;BME280;47863;55.766;37.672;2023-01-28T08:19:57;100714.88;;;-0.91;80.47
61906;BME280;47863;55.766;37.672;2023-01-28T08:22:24;100713.81;;;-0.87;80.59
61906;BME280;47863;55.766;37.672;2023-01-28T08:24:50;100655.69;;;-1.22;80.46
61906;BME280;47863;55.766;37.672;2023-01-28T08:27:15;100720.34;;;-0.75;80.60
61906;BME280;47863;55.766;37.672;2023-01-28T08:29:41;100714.03;;;-0.71;80.16
61906;BME280;47863;55.766;37.672;2023-01-28T08:32:08;100706.81;;;-0.67;80.46
61906;BME280;47863;55.766;37.672;2023-01-28T08:34:34;100712.16;;;-0.69;80.04
61906;BME280;47863;55.766;37.672;2023-01-28T08:36:59;100682.94;;;-0.83;80.25
61906;BME280;47863;55.766;37.672;2023-01-28T08:39:25;100711.19;;;-0.66;80.28
61906;BME280;47863;55.766;37.672;2023-01-28T08:41:51;100714.66;;;-0.66;79.66
61906;BME280;47863;55.766;37.672;2023-01-28T08:44:16;100700.59;;;-0.65;80.31
61906;BME280;47863;55.766;37.672;2023-01-28T08:46:42;100703.06;;;-0.62;80.36
61906;BME280;47863;55.766;37.672;2023-01-28T08:49:07;100691.25;;;-0.72;80.23
61906;BME280;47863;55.766;37.672;2023-01-28T08:51:33;100687.81;;;-0.74;80.34
61906;BME280;47863;55.766;37.672;2023-01-28T08:53:59;100674.88;;;-0.78;80.31
61906;BME280;47863;55.766;37.672;2023-01-28T08:56:24;100694.66;;;-0.70;80.42
61906;BME280;47863;55.766;37.672;2023-01-28T08:58:50;100684.91;;;-0.68;80.28
61906;BME280;47863;55.766;37.672;2023-01-28T09:01:15;100656.75;;;-0.85;80.20
61906;BME280;47863;55.766;37.672;2023-01-28T09:03:41;100697.03;;;-0.64;80.22
61906;BME280;47863;55.766;37.672;2023-01-28T09:06:07;100672.31;;;-0.80;80.40
61906;BME280;47863;55.766;37.672;2023-01-28T09:08:32;100699.59;;;-0.62;80.15
61906;BME280;47863;55.766;37.672;2023-01-28T09:10:58;100691.75;;;-0.64;80.23
61906;BME280;47863;55.766;37.672;2023-01-28T09:13:24;100684.19;;;-0.71;80.05
61906;BME280;47863;55.766;37.672;2023-01-28T09:15:50;100704.56;;;-0.56;80.05
61906;BME280;47863;55.766;37.672;2023-01-28T09:18:16;100694.84;;;-0.54;80.28
61906;BME280;47863;55.766;37.672;2023-01-28T09:20:42;100675.97;;;-0.64;79.99
61906;BME280;47863;55.766;37.672;2023-01-28T09:23:08;100664.88;;;-0.70;79.93
61906;BME280;47863;55.766;37.672;2023-01-28T09:25:34;100643.31;;;-0.78;79.92
61906;BME280;47863;55.766;37.672;2023-01-28T09:28:03;100628.78;;;-0.87;80.11
61906;BME280;47863;55.766;37.672;2023-01-28T09:30:29;100660.06;;;-0.61;80.00
61906;BME280;47863;55.766;37.672;2023-01-28T09:32:56;100682.91;;;-0.42;80.10
61906;BME280;47863;55.766;37.672;2023-01-28T09:35:23;100691.66;;;-0.42;80.16
61906;BME280;47863;55.766;37.672;2023-01-28T09:37:49;100682.28;;;-0.47;80.32
61906;BME280;47863;55.766;37.672;2023-01-28T09:40:25;100643.88;;;-0.72;79.88
61906;BME280;47863;55.766;37.672;2023-01-28T09:45:37;100675.69;;;-0.57;79.35
61906;BME280;47863;55.766;37.672;2023-01-28T09:48:07;100680.78;;;-0.53;80.00
61906;BME280;47863;55.766;37.672;2023-01-28T09:50:38;100680.00;;;-0.55;79.94
61906;BME280;47863;55.766;37.672;2023-01-28T09:53:31;100666.03;;;-0.57;79.28
61906;BME280;47863;55.766;37.672;2023-01-28T09:56:47;100682.34;;;-0.49;79.19
61906;BME280;47863;55.766;37.672;2023-01-28T09:59:19;100572.75;;;-1.08;79.29
61906;BME280;47863;55.766;37.672;2023-01-28T10:02:20;100670.97;;;-0.49;79.39
61906;BME280;47863;55.766;37.672;2023-01-28T10:07:51;100673.09;;;-0.38;79.92
61906;BME280;47863;55.766;37.672;2023-01-28T10:10:49;100670.19;;;-0.32;79.55
61906;BME280;47863;55.766;37.672;2023-01-28T10:16:11;100666.13;;;-0.21;79.17
61906;BME280;47863;55.766;37.672;2023-01-28T10:18:49;100660.50;;;-0.13;79.63
61906;BME280;47863;55.766;37.672;2023-01-28T10:23:56;100672.78;;;-0.12;79.45
61906;BME280;47863;55.766;37.672;2023-01-28T10:26:36;100635.53;;;-0.23;79.46
61906;BME280;47863;55.766;37.672;2023-01-28T10:29:16;100625.19;;;-0.28;79.36
61906;BME280;47863;55.766;37.672;2023-01-28T10:31:54;100646.28;;;-0.09;79.50
61906;BME280;47863;55.766;37.672;2023-01-28T10:34:23;100603.53;;;-0.33;79.27
61906;BME280;47863;55.766;37.672;2023-01-28T10:36:50;100638.38;;;-0.09;79.87
61906;BME280;47863;55.766;37.672;2023-01-28T10:39:19;100617.41;;;-0.29;79.70
61906;BME280;47863;55.766;37.672;2023-01-28T10:41:45;100643.66;;;-0.09;80.03
61906;BME280;47863;55.766;37.672;2023-01-28T10:44:30;100640.94;;;-0.07;79.34
61906;BME280;47863;55.766;37.672;2023-01-28T10:47:01;100646.94;;;-0.04;79.72
61906;BME280;47863;55.766;37.672;2023-01-28T10:49:30;100616.75;;;-0.15;79.61
61906;BME280;47863;55.766;37.672;2023-01-28T10:51:56;100634.53;;;-0.02;79.87
61906;BME280;47863;55.766;37.672;2023-01-28T10:54:27;100636.22;;;-0.01;79.51
61906;BME280;47863;55.766;37.672;2023-01-28T10:56:59;100626.69;;;-0.03;79.71
61906;BME280;47863;55.766;37.672;2023-01-28T11:01:55;100604.00;;;-0.25;79.37
61906;BME280;47863;55.766;37.672;2023-01-28T11:04:26;100615.97;;;-0.17;79.78
61906;BME280;47863;55.766;37.672;2023-01-28T11:07:13;100627.78;;;-0.07;79.36
61906;BME280;47863;55.766;37.672;2023-01-28T11:09:45;100591.06;;;-0.29;79.81
61906;BME280;47863;55.766;37.672;2023-01-28T11:14:37;100626.84;;;-0.06;80.06
61906;BME280;47863;55.766;37.672;2023-01-28T11:17:02;100570.16;;;-0.32;79.76
61906;BME280;47863;55.766;37.672;2023-01-28T11:19:33;100617.84;;;-0.02;79.86
61906;BME280;47863;55.766;37.672;2023-01-28T11:22:00;100609.81;;;0.01;79.67
61906;BME280;47863;55.766;37.672;2023-01-28T11:24:31;100607.06;;;0.04;79.62
61906;BME280;47863;55.766;37.672;2023-01-28T11:26:58;100597.66;;;-0.02;79.80
61906;BME280;47863;55.766;37.672;2023-01-28T11:29:33;100603.53;;;0.04;79.42
61906;BME280;47863;55.766;37.672;2023-01-28T11:32:03;100608.38;;;0.13;79.73
61906;BME280;47863;55.766;37.672;2023-01-28T11:34:33;100609.28;;;0.12;79.52
61906;BME280;47863;55.766;37.672;2023-01-28T11:37:13;100591.78;;;0.11;79.44
61906;BME280;47863;55.766;37.672;2023-01-28T11:39:41;100593.56;;;0.10;79.66
61906;BME280;47863;55.766;37.672;2023-01-28T11:42:15;100592.50;;;0.14;78.85
61906;BME280;47863;55.766;37.672;2023-01-28T11:44:42;100596.03;;;0.13;79.46
61906;BME280;47863;55.766;37.672;2023-01-28T12:10:02;100563.25;;;0.02;78.20
61906;BME280;47863;55.766;37.672;2023-01-28T12:21:06;100561.75;;;-0.04;78.76
61906;BME280;47863;55.766;37.672;2023-01-28T12:29:16;100523.19;;;-0.42;79.36
61906;BME280;47863;55.766;37.672;2023-01-28T12:31:49;100560.25;;;-0.27;79.20
61906;BME280;47863;55.766;37.672;2023-01-28T12:42:41;100557.22;;;-0.37;79.65
61906;BME280;47863;55.766;37.672;2023-01-28T12:47:39;100544.13;;;-0.38;79.47
61906;BME280;47863;55.766;37.672;2023-01-28T12:50:19;100544.25;;;-0.42;79.71
61906;BME280;47863;55.766;37.672;2023-01-28T12:52:56;100545.19;;;-0.43;79.59
61906;BME280;47863;55.766;37.672;2023-01-28T12:55:34;100542.63;;;-0.44;79.75
61906;BME280;47863;55.766;37.672;2023-01-28T12:58:04;100537.53;;;-0.47;79.75
61906;BME280;47863;55.766;37.672;2023-01-28T13:00:33;100480.41;;;-0.83;79.31
61906;BME280;47863;55.766;37.672;2023-01-28T13:06:13;100511.34;;;-0.69;79.79
61906;BME280;47863;55.766;37.672;2023-01-28T13:08:39;100543.69;;;-0.48;79.53
61906;BME280;47863;55.766;37.672;2023-01-28T13:11:11;100532.53;;;-0.53;79.70
61906;BME280;47863;55.766;37.672;2023-01-28T13:13:40;100540.28;;;-0.50;79.85
61906;BME280;47863;55.766;37.672;2023-01-28T13:16:08;100514.13;;;-0.72;79.50
61906;BME280;47863;55.766;37.672;2023-01-28T13:23:40;100544.84;;;-0.54;79.77
61906;BME280;47863;55.766;37.672;2023-01-28T13:28:49;100543.69;;;-0.67;79.44
61906;BME280;47863;55.766;37.672;2023-01-28T13:31:18;100505.44;;;-0.93;79.86
61906;BME280;47863;55.766;37.672;2023-01-28T13:34:00;100534.88;;;-0.85;79.60
61906;BME280;47863;55.766;37.672;2023-01-28T13:36:32;100540.41;;;-0.91;80.06
61906;BME280;47863;55.766;37.672;2023-01-28T13:39:14;100536.38;;;-0.98;79.74
61906;BME280;47863;55.766;37.672;2023-01-28T13:41:43;100538.22;;;-1.01;80.07
61906;BME280;47863;55.766;37.672;2023-01-28T13:47:19;100538.22;;;-1.01;79.29
61906;BME280;47863;55.766;37.672;2023-01-28T13:50:10;100530.22;;;-0.99;79.60
61906;BME280;47863;55.766;37.672;2023-01-28T13:55:19;100503.38;;;-1.06;79.53
61906;BME280;47863;55.766;37.672;2023-01-28T14:08:30;100507.28;;;-1.14;80.12
61906;BME280;47863;55.766;37.672;2023-01-28T14:16:39;100491.06;;;-1.05;79.88
61906;BME280;47863;55.766;37.672;2023-01-28T14:19:10;100487.72;;;-1.09;79.96
61906;BME280;47863;55.766;37.672;2023-01-28T14:21:37;100500.69;;;-1.04;79.91
61906;BME280;47863;55.766;37.672;2023-01-28T14:24:04;100463.78;;;-1.22;79.83
61906;BME280;47863;55.766;37.672;2023-01-28T14:29:43;100495.34;;;-1.03;79.46
61906;BME280;47863;55.766;37.672;2023-01-28T14:32:18;100497.78;;;-0.98;79.95
61906;BME280;47863;55.766;37.672;2023-01-28T14:34:44;100484.69;;;-1.00;79.85
61906;BME280;47863;55.766;37.672;2023-01-28T14:37:13;100466.50;;;-1.04;79.87
61906;BME280;47863;55.766;37.672;2023-01-28T14:39:45;100469.06;;;-1.03;79.92
61906;BME280;47863;55.766;37.672;2023-01-28T14:42:20;100462.09;;;-1.04;79.88
61906;BME280;47863;55.766;37.672;2023-01-28T14:45:00;100471.13;;;-0.90;79.98
61906;BME280;47863;55.766;37.672;2023-01-28T14:58:58;100461.72;;;-0.96;79.70
61906;BME280;47863;55.766;37.672;2023-01-28T15:01:29;100450.38;;;-0.96;79.94
61906;BME280;47863;55.766;37.672;2023-01-28T15:03:56;100463.16;;;-0.89;80.02
61906;BME280;47863;55.766;37.672;2023-01-28T15:06:23;100467.19;;;-0.82;79.99
61906;BME280;47863;55.766;37.672;2023-01-28T15:09:03;100413.06;;;-1.05;80.22